sensor_id;sensor_type;location;lat;lon;timestamp;P1;durP1;ratioP1;P2;durP2;ratioP2
47009;SDS011;59230;54.164;-3.124;2022-11-13T00:01:12;101.72;;;37.67;;
47009;SDS011;59230;54.164;-3.124;2022-11-13T00:03:42;89.22;;;37.72;;
47009;SDS011;59230;54.164;-3.124;2022-11-13T00:06:08;92.53;;;38.45;;
47009;SDS011;59230;54.164;-3.124;2022-11-13T00:08:38;99.45;;;38.17;;
47009;SDS011;59230;54.164;-3.124;2022-11-13T00:11:06;87.70;;;37.70;;
47009;SDS011;59230;54.164;-3.124;2022-11-13T00:13:32;87.18;;;36.92;;
47009;SDS011;59230;54.164;-3.124;2022-11-13T00:15:59;85.03;;;35.55;;
47009;SDS011;59230;54.164;-3.124;2022-11-13T00:18:30;89.05;;;36.92;;
47009;SDS011;59230;54.164;-3.124;2022-11-13T00:23:35;86.15;;;38.90;;
47009;SDS011;59230;54.164;-3.124;2022-11-13T00:28:36;82.60;;;37.08;;
47009;SDS011;59230;54.164;-3.124;2022-11-13T00:31:05;67.75;;;34.90;;
47009;SDS011;59230;54.164;-3.124;2022-11-13T00:33:32;71.07;;;34.60;;
47009;SDS011;59230;54.164;-3.124;2022-11-13T00:36:06;76.40;;;35.90;;
47009;SDS011;59230;54.164;-3.124;2022-11-13T00:38:36;83.00;;;37.28;;
47009;SDS011;59230;54.164;-3.124;2022-11-13T00:41:03;79.00;;;37.13;;
47009;SDS011;59230;54.164;-3.124;2022-11-13T00:43:29;76.82;;;36.03;;
47009;SDS011;59230;54.164;-3.124;2022-11-13T00:46:02;78.65;;;35.70;;
47009;SDS011;59230;54.164;-3.124;2022-11-13T00:48:32;77.30;;;36.22;;
47009;SDS011;59230;54.164;-3.124;2022-11-13T00:50:59;85.72;;;34.88;;
47009;SDS011;59230;54.164;-3.124;2022-11-13T00:53:26;85.20;;;38.35;;
47009;SDS011;59230;54.164;-3.124;2022-11-13T00:55:55;83.75;;;36.88;;
47009;SDS011;59230;54.164;-3.124;2022-11-13T00:58:21;84.38;;;34.53;;
47009;SDS011;59230;54.164;-3.124;2022-11-13T01:00:48;71.97;;;35.10;;
47009;SDS011;59230;54.164;-3.124;2022-11-13T01:03:15;72.72;;;32.55;;
47009;SDS011;59230;54.164;-3.124;2022-11-13T01:05:46;82.53;;;34.28;;
47009;SDS011;59230;54.164;-3.124;2022-11-13T01:08:15;66.47;;;33.03;;
47009;SDS011;59230;54.164;-3.124;2022-11-13T01:10:43;64.90;;;31.58;;
47009;SDS011;59230;54.164;-3.124;2022-11-13T01:13:14;73.47;;;32.58;;
47009;SDS011;59230;54.164;-3.124;2022-11-13T01:15:42;71.82;;;32.33;;
47009;SDS011;59230;54.164;-3.124;2022-11-13T01:18:10;75.32;;;33.05;;
47009;SDS011;59230;54.164;-3.124;2022-11-13T01:20:36;67.18;;;31.65;;
47009;SDS011;59230;54.164;-3.124;2022-11-13T01:23:07;66.80;;;32.90;;
47009;SDS011;59230;54.164;-3.124;2022-11-13T01:25:35;69.03;;;32.47;;
47009;SDS011;59230;54.164;-3.124;2022-11-13T01:28:00;78.90;;;34.90;;
47009;SDS011;59230;54.164;-3.124;2022-11-13T01:30:30;54.88;;;30.63;;
47009;SDS011;59230;54.164;-3.124;2022-11-13T01:32:55;63.60;;;32.13;;
47009;SDS011;59230;54.164;-3.124;2022-11-13T01:35:21;75.10;;;33.38;;
47009;SDS011;59230;54.164;-3.124;2022-11-13T01:37:47;71.90;;;34.53;;
47009;SDS011;59230;54.164;-3.124;2022-11-13T01:40:14;65.50;;;31.20;;
47009;SDS011;59230;54.164;-3.124;2022-11-13T01:42:43;73.28;;;31.80;;
47009;SDS011;59230;54.164;-3.124;2022-11-13T01:48:18;58.75;;;31.55;;
47009;SDS011;59230;54.164;-3.124;2022-11-13T01:50:47;67.78;;;32.17;;
47009;SDS011;59230;54.164;-3.124;2022-11-13T01:53:15;63.17;;;32.05;;
47009;SDS011;59230;54.164;-3.124;2022-11-13T01:55:43;54.25;;;28.70;;
47009;SDS011;59230;54.164;-3.124;2022-11-13T01:58:12;63.05;;;29.33;;
47009;SDS011;59230;54.164;-3.124;2022-11-13T02:00:41;44.05;;;25.50;;
47009;SDS011;59230;54.164;-3.124;2022-11-13T02:03:09;53.80;;;26.67;;
47009;SDS011;59230;54.164;-3.124;2022-11-13T02:05:38;60.70;;;29.58;;
47009;SDS011;59230;54.164;-3.124;2022-11-13T02:08:05;56.67;;;29.08;;
47009;SDS011;59230;54.164;-3.124;2022-11-13T02:10:31;59.85;;;28.33;;
47009;SDS011;59230;54.164;-3.124;2022-11-13T02:12:57;70.10;;;32.75;;
47009;SDS011;59230;54.164;-3.124;2022-11-13T02:15:25;71.88;;;30.08;;
47009;SDS011;59230;54.164;-3.124;2022-11-13T02:17:56;53.33;;;27.92;;
47009;SDS011;59230;54.164;-3.124;2022-11-13T02:25:58;68.82;;;29.10;;
47009;SDS011;59230;54.164;-3.124;2022-11-13T02:28:25;67.35;;;30.35;;
47009;SDS011;59230;54.164;-3.124;2022-11-13T02:30:51;71.05;;;33.00;;
47009;SDS011;59230;54.164;-3.124;2022-11-13T02:35:55;76.72;;;32.97;;
47009;SDS011;59230;54.164;-3.124;2022-11-13T02:38:21;76.10;;;32.83;;
47009;SDS011;59230;54.164;-3.124;2022-11-13T02:40:49;76.93;;;33.90;;
47009;SDS011;59230;54.164;-3.124;2022-11-13T02:43:16;84.32;;;33.85;;
47009;SDS011;59230;54.164;-3.124;2022-11-13T02:45:45;82.32;;;33.75;;
47009;SDS011;59230;54.164;-3.124;2022-11-13T02:48:10;66.32;;;32.67;;
47009;SDS011;59230;54.164;-3.124;2022-11-13T02:50:38;72.63;;;32.17;;
47009;SDS011;59230;54.164;-3.124;2022-11-13T02:53:05;58.08;;;30.88;;
47009;SDS011;59230;54.164;-3.124;2022-11-13T02:55:30;70.32;;;32.45;;
47009;SDS011;59230;54.164;-3.124;2022-11-13T02:57:58;56.75;;;31.98;;
47009;SDS011;59230;54.164;-3.124;2022-11-13T03:00:24;73.15;;;34.13;;
47009;SDS011;59230;54.164;-3.124;2022-11-13T03:02:51;60.92;;;30.98;;
47009;SDS011;59230;54.164;-3.124;2022-11-13T03:05:18;61.88;;;31.95;;
47009;SDS011;59230;54.164;-3.124;2022-11-13T03:07:44;85.30;;;34.67;;
47009;SDS011;59230;54.164;-3.124;2022-11-13T03:10:13;50.92;;;30.33;;
47009;SDS011;59230;54.164;-3.124;2022-11-13T03:12:40;74.32;;;33.35;;
47009;SDS011;59230;54.164;-3.124;2022-11-13T03:15:07;60.05;;;33.13;;
47009;SDS011;59230;54.164;-3.124;2022-11-13T03:17:40;77.53;;;33.67;;
47009;SDS011;59230;54.164;-3.124;2022-11-13T03:20:08;61.53;;;31.55;;
47009;SDS011;59230;54.164;-3.124;2022-11-13T03:22:35;62.97;;;32.63;;
47009;SDS011;59230;54.164;-3.124;2022-11-13T03:25:02;64.13;;;33.03;;
47009;SDS011;59230;54.164;-3.124;2022-11-13T03:27:29;74.68;;;33.40;;
47009;SDS011;59230;54.164;-3.124;2022-11-13T03:30:00;68.30;;;31.83;;
47009;SDS011;59230;54.164;-3.124;2022-11-13T03:32:25;79.15;;;34.88;;
47009;SDS011;59230;54.164;-3.124;2022-11-13T03:34:51;72.90;;;33.95;;
47009;SDS011;59230;54.164;-3.124;2022-11-13T03:37:17;75.85;;;33.80;;
47009;SDS011;59230;54.164;-3.124;2022-11-13T03:39:43;77.60;;;33.55;;
47009;SDS011;59230;54.164;-3.124;2022-11-13T03:42:09;69.28;;;32.47;;
47009;SDS011;59230;54.164;-3.124;2022-11-13T03:44:34;60.22;;;31.25;;
47009;SDS011;59230;54.164;-3.124;2022-11-13T03:47:01;77.50;;;35.65;;
47009;SDS011;59230;54.164;-3.124;2022-11-13T03:49:27;71.90;;;32.63;;
47009;SDS011;59230;54.164;-3.124;2022-11-13T03:51:54;68.80;;;35.08;;
47009;SDS011;59230;54.164;-3.124;2022-11-13T03:54:21;81.88;;;35.13;;
47009;SDS011;59230;54.164;-3.124;2022-11-13T03:56:47;56.47;;;29.30;;
47009;SDS011;59230;54.164;-3.124;2022-11-13T03:59:16;59.72;;;26.58;;
47009;SDS011;59230;54.164;-3.124;2022-11-13T04:01:44;46.60;;;24.50;;
47009;SDS011;59230;54.164;-3.124;2022-11-13T04:04:10;47.95;;;24.88;;
47009;SDS011;59230;54.164;-3.124;2022-11-13T04:06:37;48.13;;;26.05;;
47009;SDS011;59230;54.164;-3.124;2022-11-13T04:09:05;48.03;;;25.90;;
47009;SDS011;59230;54.164;-3.124;2022-11-13T04:11:31;56.10;;;27.40;;
47009;SDS011;59230;54.164;-3.124;2022-11-13T04:13:57;48.63;;;26.10;;
47009;SDS011;59230;54.164;-3.124;2022-11-13T04:16:25;57.95;;;28.75;;
47009;SDS011;59230;54.164;-3.124;2022-11-13T04:18:55;53.42;;;28.25;;
47009;SDS011;59230;54.164;-3.124;2022-11-13T04:21:21;51.47;;;26.10;;
47009;SDS011;59230;54.164;-3.124;2022-11-13T04:23:47;52.85;;;28.30;;
47009;SDS011;59230;54.164;-3.124;2022-11-13T04:26:14;66.40;;;30.85;;
47009;SDS011;59230;54.164;-3.124;2022-11-13T04:28:42;62.83;;;30.65;;
47009;SDS011;59230;54.164;-3.124;2022-11-13T04:31:08;59.42;;;31.20;;
47009;SDS011;59230;54.164;-3.124;2022-11-13T04:33:37;54.13;;;30.00;;
47009;SDS011;59230;54.164;-3.124;2022-11-13T04:36:05;64.85;;;31.23;;
47009;SDS011;59230;54.164;-3.124;2022-11-13T04:38:31;66.03;;;31.65;;
47009;SDS011;59230;54.164;-3.124;2022-11-13T04:40:58;58.33;;;29.83;;
47009;SDS011;59230;54.164;-3.124;2022-11-13T04:43:44;63.97;;;31.35;;
47009;SDS011;59230;54.164;-3.124;2022-11-13T04:46:10;54.58;;;29.83;;
47009;SDS011;59230;54.164;-3.124;2022-11-13T04:48:37;60.42;;;30.27;;
47009;SDS011;59230;54.164;-3.124;2022-11-13T04:51:04;50.58;;;29.52;;
47009;SDS011;59230;54.164;-3.124;2022-11-13T04:53:31;53.55;;;30.08;;
47009;SDS011;59230;54.164;-3.124;2022-11-13T04:55:58;66.00;;;31.45;;
47009;SDS011;59230;54.164;-3.124;2022-11-13T04:58:27;58.00;;;32.90;;
47009;SDS011;59230;54.164;-3.124;2022-11-13T05:00:54;63.05;;;30.02;;
47009;SDS011;59230;54.164;-3.124;2022-11-13T05:03:21;62.85;;;31.77;;
47009;SDS011;59230;54.164;-3.124;2022-11-13T05:05:46;54.38;;;33.10;;
47009;SDS011;59230;54.164;-3.124;2022-11-13T05:08:13;66.75;;;35.15;;
47009;SDS011;59230;54.164;-3.124;2022-11-13T05:10:39;70.47;;;36.42;;
47009;SDS011;59230;54.164;-3.124;2022-11-13T05:13:04;65.55;;;35.30;;
47009;SDS011;59230;54.164;-3.124;2022-11-13T05:15:31;69.85;;;37.22;;
47009;SDS011;59230;54.164;-3.124;2022-11-13T05:18:00;83.15;;;39.85;;
47009;SDS011;59230;54.164;-3.124;2022-11-13T05:20:26;78.32;;;37.17;;
47009;SDS011;59230;54.164;-3.124;2022-11-13T05:22:53;72.70;;;37.20;;
47009;SDS011;59230;54.164;-3.124;2022-11-13T05:25:20;69.30;;;36.47;;
47009;SDS011;59230;54.164;-3.124;2022-11-13T05:27:48;66.38;;;36.50;;
47009;SDS011;59230;54.164;-3.124;2022-11-13T05:30:15;72.15;;;35.75;;
47009;SDS011;59230;54.164;-3.124;2022-11-13T05:32:41;69.68;;;35.10;;
47009;SDS011;59230;54.164;-3.124;2022-11-13T05:35:11;65.60;;;35.60;;
47009;SDS011;59230;54.164;-3.124;2022-11-13T05:37:36;60.95;;;33.83;;
47009;SDS011;59230;54.164;-3.124;2022-11-13T05:40:03;65.95;;;35.28;;
47009;SDS011;59230;54.164;-3.124;2022-11-13T05:42:31;68.50;;;35.45;;
47009;SDS011;59230;54.164;-3.124;2022-11-13T05:44:56;64.47;;;34.72;;
47009;SDS011;59230;54.164;-3.124;2022-11-13T05:47:22;58.22;;;33.50;;
47009;SDS011;59230;54.164;-3.124;2022-11-13T05:49:48;57.65;;;31.65;;
47009;SDS011;59230;54.164;-3.124;2022-11-13T05:52:15;63.22;;;33.15;;
47009;SDS011;59230;54.164;-3.124;2022-11-13T05:54:43;67.90;;;32.58;;
47009;SDS011;59230;54.164;-3.124;2022-11-13T05:57:13;63.42;;;31.38;;
47009;SDS011;59230;54.164;-3.124;2022-11-13T05:59:38;60.55;;;32.53;;
47009;SDS011;59230;54.164;-3.124;2022-11-13T06:02:04;47.15;;;28.10;;
47009;SDS011;59230;54.164;-3.124;2022-11-13T06:04:30;49.33;;;27.77;;
47009;SDS011;59230;54.164;-3.124;2022-11-13T06:06:56;46.72;;;26.95;;
47009;SDS011;59230;54.164;-3.124;2022-11-13T06:09:22;48.30;;;25.42;;
47009;SDS011;59230;54.164;-3.124;2022-11-13T06:11:47;46.25;;;26.02;;
47009;SDS011;59230;54.164;-3.124;2022-11-13T06:14:14;52.88;;;26.75;;
47009;SDS011;59230;54.164;-3.124;2022-11-13T06:16:39;44.58;;;27.40;;
47009;SDS011;59230;54.164;-3.124;2022-11-13T06:19:07;39.30;;;23.95;;
47009;SDS011;59230;54.164;-3.124;2022-11-13T06:21:36;46.47;;;27.83;;
47009;SDS011;59230;54.164;-3.124;2022-11-13T06:24:04;49.95;;;27.90;;
47009;SDS011;59230;54.164;-3.124;2022-11-13T06:26:33;54.88;;;28.70;;
47009;SDS011;59230;54.164;-3.124;2022-11-13T06:29:00;49.15;;;29.55;;
47009;SDS011;59230;54.164;-3.124;2022-11-13T06:31:28;58.38;;;29.67;;
47009;SDS011;59230;54.164;-3.124;2022-11-13T06:33:58;55.85;;;28.63;;
47009;SDS011;59230;54.164;-3.124;2022-11-13T06:36:32;55.45;;;29.73;;
47009;SDS011;59230;54.164;-3.124;2022-11-13T06:39:04;51.05;;;28.23;;
47009;SDS011;59230;54.164;-3.124;2022-11-13T06:41:36;49.35;;;29.58;;
47009;SDS011;59230;54.164;-3.124;2022-11-13T06:44:05;51.00;;;28.90;;
47009;SDS011;59230;54.164;-3.124;2022-11-13T06:46:32;56.63;;;30.30;;
47009;SDS011;59230;54.164;-3.124;2022-11-13T06:48:57;60.03;;;29.98;;
47009;SDS011;59230;54.164;-3.124;2022-11-13T06:54:15;54.33;;;30.23;;
47009;SDS011;59230;54.164;-3.124;2022-11-13T06:56:42;54.17;;;29.73;;
47009;SDS011;59230;54.164;-3.124;2022-11-13T06:59:10;53.88;;;31.55;;
47009;SDS011;59230;54.164;-3.124;2022-11-13T07:01:35;65.78;;;31.83;;
47009;SDS011;59230;54.164;-3.124;2022-11-13T07:04:01;56.25;;;31.13;;
47009;SDS011;59230;54.164;-3.124;2022-11-13T07:06:29;60.75;;;31.15;;
47009;SDS011;59230;54.164;-3.124;2022-11-13T07:08:55;58.63;;;33.13;;
47009;SDS011;59230;54.164;-3.124;2022-11-13T07:11:22;59.30;;;32.08;;
47009;SDS011;59230;54.164;-3.124;2022-11-13T07:13:48;70.15;;;34.03;;
47009;SDS011;59230;54.164;-3.124;2022-11-13T07:16:15;64.53;;;32.63;;
47009;SDS011;59230;54.164;-3.124;2022-11-13T07:18:43;73.78;;;34.42;;
47009;SDS011;59230;54.164;-3.124;2022-11-13T07:21:16;73.28;;;34.88;;
47009;SDS011;59230;54.164;-3.124;2022-11-13T07:23:43;78.03;;;35.35;;
47009;SDS011;59230;54.164;-3.124;2022-11-13T07:26:10;72.65;;;36.47;;
47009;SDS011;59230;54.164;-3.124;2022-11-13T07:28:39;81.65;;;36.97;;
47009;SDS011;59230;54.164;-3.124;2022-11-13T07:31:10;81.68;;;36.63;;
47009;SDS011;59230;54.164;-3.124;2022-11-13T07:33:37;78.47;;;35.40;;
47009;SDS011;59230;54.164;-3.124;2022-11-13T07:36:05;85.10;;;38.03;;
47009;SDS011;59230;54.164;-3.124;2022-11-13T07:38:36;84.50;;;37.28;;
47009;SDS011;59230;54.164;-3.124;2022-11-13T07:41:03;76.88;;;37.40;;
47009;SDS011;59230;54.164;-3.124;2022-11-13T07:43:29;65.95;;;34.33;;
47009;SDS011;59230;54.164;-3.124;2022-11-13T07:45:57;69.78;;;35.55;;
47009;SDS011;59230;54.164;-3.124;2022-11-13T07:48:26;70.60;;;34.28;;
47009;SDS011;59230;54.164;-3.124;2022-11-13T07:50:52;70.13;;;40.45;;
47009;SDS011;59230;54.164;-3.124;2022-11-13T07:53:20;68.30;;;34.35;;
47009;SDS011;59230;54.164;-3.124;2022-11-13T07:55:45;109.03;;;58.60;;
47009;SDS011;59230;54.164;-3.124;2022-11-13T07:58:14;139.35;;;76.72;;
47009;SDS011;59230;54.164;-3.124;2022-11-13T08:00:41;53.95;;;29.35;;
47009;SDS011;59230;54.164;-3.124;2022-11-13T08:03:08;66.85;;;37.30;;
47009;SDS011;59230;54.164;-3.124;2022-11-13T08:05:43;68.40;;;38.78;;
47009;SDS011;59230;54.164;-3.124;2022-11-13T08:08:13;54.40;;;30.92;;
47009;SDS011;59230;54.164;-3.124;2022-11-13T08:10:44;45.17;;;27.55;;
47009;SDS011;59230;54.164;-3.124;2022-11-13T08:13:09;51.88;;;28.25;;
47009;SDS011;59230;54.164;-3.124;2022-11-13T08:15:36;48.17;;;26.35;;
47009;SDS011;59230;54.164;-3.124;2022-11-13T08:18:02;41.75;;;25.63;;
47009;SDS011;59230;54.164;-3.124;2022-11-13T08:20:33;54.55;;;25.95;;
47009;SDS011;59230;54.164;-3.124;2022-11-13T08:23:00;43.83;;;25.35;;
47009;SDS011;59230;54.164;-3.124;2022-11-13T08:25:34;47.42;;;25.50;;
47009;SDS011;59230;54.164;-3.124;2022-11-13T08:28:00;46.63;;;25.83;;
47009;SDS011;59230;54.164;-3.124;2022-11-13T08:30:25;47.63;;;24.77;;
47009;SDS011;59230;54.164;-3.124;2022-11-13T08:32:51;42.70;;;25.23;;
47009;SDS011;59230;54.164;-3.124;2022-11-13T08:35:17;41.55;;;24.35;;
47009;SDS011;59230;54.164;-3.124;2022-11-13T08:37:44;42.63;;;25.42;;
47009;SDS011;59230;54.164;-3.124;2022-11-13T08:40:12;49.08;;;26.02;;
47009;SDS011;59230;54.164;-3.124;2022-11-13T08:42:40;41.00;;;24.25;;
47009;SDS011;59230;54.164;-3.124;2022-11-13T08:45:05;43.58;;;25.27;;
47009;SDS011;59230;54.164;-3.124;2022-11-13T08:47:33;48.03;;;25.30;;
47009;SDS011;59230;54.164;-3.124;2022-11-13T08:50:00;39.15;;;23.75;;
47009;SDS011;59230;54.164;-3.124;2022-11-13T08:52:28;41.10;;;24.65;;
47009;SDS011;59230;54.164;-3.124;2022-11-13T08:54:57;44.83;;;25.02;;
47009;SDS011;59230;54.164;-3.124;2022-11-13T08:57:23;44.45;;;24.42;;
47009;SDS011;59230;54.164;-3.124;2022-11-13T08:59:51;41.30;;;24.13;;
47009;SDS011;59230;54.164;-3.124;2022-11-13T09:02:18;47.50;;;25.42;;
47009;SDS011;59230;54.164;-3.124;2022-11-13T09:04:44;45.97;;;25.60;;
47009;SDS011;59230;54.164;-3.124;2022-11-13T09:07:11;53.03;;;25.98;;
47009;SDS011;59230;54.164;-3.124;2022-11-13T09:09:37;52.63;;;26.98;;
47009;SDS011;59230;54.164;-3.124;2022-11-13T09:12:05;45.78;;;24.98;;
47009;SDS011;59230;54.164;-3.124;2022-11-13T09:14:31;50.78;;;26.88;;
47009;SDS011;59230;54.164;-3.124;2022-11-13T09:16:58;47.58;;;25.92;;
47009;SDS011;59230;54.164;-3.124;2022-11-13T09:19:29;44.55;;;24.73;;
47009;SDS011;59230;54.164;-3.124;2022-11-13T09:21:54;53.83;;;26.92;;
47009;SDS011;59230;54.164;-3.124;2022-11-13T09:24:22;62.33;;;35.47;;
47009;SDS011;59230;54.164;-3.124;2022-11-13T09:26:47;47.28;;;28.38;;
47009;SDS011;59230;54.164;-3.124;2022-11-13T09:29:15;53.88;;;28.65;;
47009;SDS011;59230;54.164;-3.124;2022-11-13T09:31:43;41.72;;;26.10;;
47009;SDS011;59230;54.164;-3.124;2022-11-13T09:34:10;45.03;;;24.45;;
47009;SDS011;59230;54.164;-3.124;2022-11-13T09:36:35;42.63;;;24.25;;
47009;SDS011;59230;54.164;-3.124;2022-11-13T09:39:05;43.92;;;24.38;;
47009;SDS011;59230;54.164;-3.124;2022-11-13T09:41:47;46.38;;;24.02;;
47009;SDS011;59230;54.164;-3.124;2022-11-13T09:44:19;41.42;;;22.77;;
47009;SDS011;59230;54.164;-3.124;2022-11-13T09:46:54;34.35;;;21.65;;
47009;SDS011;59230;54.164;-3.124;2022-11-13T09:49:30;40.28;;;23.42;;
47009;SDS011;59230;54.164;-3.124;2022-11-13T09:52:01;34.92;;;21.10;;
47009;SDS011;59230;54.164;-3.124;2022-11-13T09:54:38;38.30;;;22.80;;
47009;SDS011;59230;54.164;-3.124;2022-11-13T10:00:05;36.10;;;22.13;;
47009;SDS011;59230;54.164;-3.124;2022-11-13T10:02:53;35.95;;;21.13;;
47009;SDS011;59230;54.164;-3.124;2022-11-13T10:05:48;38.90;;;22.17;;
47009;SDS011;59230;54.164;-3.124;2022-11-13T10:08:18;104.25;;;52.78;;
47009;SDS011;59230;54.164;-3.124;2022-11-13T10:11:01;130.40;;;59.72;;
47009;SDS011;59230;54.164;-3.124;2022-11-13T10:13:46;58.13;;;30.30;;
47009;SDS011;59230;54.164;-3.124;2022-11-13T10:25:02;65.97;;;32.58;;
47009;SDS011;59230;54.164;-3.124;2022-11-13T10:27:38;55.60;;;29.75;;
47009;SDS011;59230;54.164;-3.124;2022-11-13T10:30:17;78.18;;;46.38;;
47009;SDS011;59230;54.164;-3.124;2022-11-13T10:32:48;61.15;;;39.80;;
47009;SDS011;59230;54.164;-3.124;2022-11-13T10:38:32;43.35;;;31.30;;
47009;SDS011;59230;54.164;-3.124;2022-11-13T10:41:10;35.88;;;20.50;;
47009;SDS011;59230;54.164;-3.124;2022-11-13T10:44:01;29.48;;;17.92;;
47009;SDS011;59230;54.164;-3.124;2022-11-13T10:46:33;27.75;;;18.10;;
47009;SDS011;59230;54.164;-3.124;2022-11-13T10:49:11;30.10;;;18.23;;
47009;SDS011;59230;54.164;-3.124;2022-11-13T10:51:42;25.85;;;15.48;;
47009;SDS011;59230;54.164;-3.124;2022-11-13T10:54:27;28.77;;;17.50;;
47009;SDS011;59230;54.164;-3.124;2022-11-13T10:56:57;24.35;;;15.30;;
47009;SDS011;59230;54.164;-3.124;2022-11-13T10:59:39;26.00;;;15.65;;
47009;SDS011;59230;54.164;-3.124;2022-11-13T11:05:03;27.13;;;15.60;;
47009;SDS011;59230;54.164;-3.124;2022-11-13T11:07:33;28.23;;;14.02;;
47009;SDS011;59230;54.164;-3.124;2022-11-13T11:13:02;24.50;;;13.35;;
47009;SDS011;59230;54.164;-3.124;2022-11-13T11:15:47;20.58;;;12.52;;
47009;SDS011;59230;54.164;-3.124;2022-11-13T11:18:21;27.75;;;13.18;;
47009;SDS011;59230;54.164;-3.124;2022-11-13T11:20:58;23.65;;;12.38;;
47009;SDS011;59230;54.164;-3.124;2022-11-13T11:26:36;25.85;;;12.20;;
47009;SDS011;59230;54.164;-3.124;2022-11-13T11:29:33;20.02;;;10.93;;
47009;SDS011;59230;54.164;-3.124;2022-11-13T11:32:14;17.13;;;9.00;;
47009;SDS011;59230;54.164;-3.124;2022-11-13T11:34:46;17.85;;;9.93;;
47009;SDS011;59230;54.164;-3.124;2022-11-13T11:37:26;19.17;;;9.63;;
47009;SDS011;59230;54.164;-3.124;2022-11-13T11:40:27;18.00;;;9.35;;
47009;SDS011;59230;54.164;-3.124;2022-11-13T11:43:11;18.73;;;9.68;;
47009;SDS011;59230;54.164;-3.124;2022-11-13T11:45:49;16.73;;;9.55;;
47009;SDS011;59230;54.164;-3.124;2022-11-13T11:48:26;16.27;;;9.60;;
47009;SDS011;59230;54.164;-3.124;2022-11-13T11:51:01;16.30;;;8.23;;
47009;SDS011;59230;54.164;-3.124;2022-11-13T12:01:46;16.38;;;8.77;;
47009;SDS011;59230;54.164;-3.124;2022-11-13T12:15:25;11.77;;;7.93;;
47009;SDS011;59230;54.164;-3.124;2022-11-13T12:26:30;16.90;;;7.97;;
47009;SDS011;59230;54.164;-3.124;2022-11-13T12:29:21;14.57;;;8.07;;
47009;SDS011;59230;54.164;-3.124;2022-11-13T12:34:57;16.90;;;9.45;;
47009;SDS011;59230;54.164;-3.124;2022-11-13T12:40:44;23.13;;;13.50;;
47009;SDS011;59230;54.164;-3.124;2022-11-13T12:43:19;36.97;;;21.02;;
47009;SDS011;59230;54.164;-3.124;2022-11-13T12:45:51;24.67;;;14.77;;
47009;SDS011;59230;54.164;-3.124;2022-11-13T12:48:20;41.83;;;21.58;;
47009;SDS011;59230;54.164;-3.124;2022-11-13T12:51:01;24.58;;;10.95;;
47009;SDS011;59230;54.164;-3.124;2022-11-13T12:58:53;10.32;;;5.63;;
47009;SDS011;59230;54.164;-3.124;2022-11-13T13:01:23;11.90;;;5.70;;
47009;SDS011;59230;54.164;-3.124;2022-11-13T13:06:44;13.02;;;6.38;;
47009;SDS011;59230;54.164;-3.124;2022-11-13T13:09:43;15.68;;;5.40;;
47009;SDS011;59230;54.164;-3.124;2022-11-13T13:15:10;13.45;;;6.63;;
47009;SDS011;59230;54.164;-3.124;2022-11-13T13:18:11;18.17;;;8.02;;
47009;SDS011;59230;54.164;-3.124;2022-11-13T13:20:45;29.13;;;13.10;;
47009;SDS011;59230;54.164;-3.124;2022-11-13T13:23:30;20.98;;;9.50;;
47009;SDS011;59230;54.164;-3.124;2022-11-13T13:26:12;20.35;;;10.55;;
47009;SDS011;59230;54.164;-3.124;2022-11-13T13:28:55;10.30;;;4.88;;
47009;SDS011;59230;54.164;-3.124;2022-11-13T13:31:58;28.90;;;13.63;;
47009;SDS011;59230;54.164;-3.124;2022-11-13T13:37:20;18.42;;;8.73;;
47009;SDS011;59230;54.164;-3.124;2022-11-13T13:40:28;11.35;;;4.85;;
47009;SDS011;59230;54.164;-3.124;2022-11-13T13:43:28;11.48;;;5.10;;
47009;SDS011;59230;54.164;-3.124;2022-11-13T13:46:15;15.02;;;5.03;;
47009;SDS011;59230;54.164;-3.124;2022-11-13T13:48:48;18.38;;;8.15;;
47009;SDS011;59230;54.164;-3.124;2022-11-13T13:51:20;12.23;;;4.50;;
47009;SDS011;59230;54.164;-3.124;2022-11-13T13:56:14;7.32;;;4.88;;
47009;SDS011;59230;54.164;-3.124;2022-11-13T13:58:40;14.38;;;7.47;;
47009;SDS011;59230;54.164;-3.124;2022-11-13T14:01:11;18.55;;;4.95;;
47009;SDS011;59230;54.164;-3.124;2022-11-13T14:03:43;13.13;;;6.00;;
47009;SDS011;59230;54.164;-3.124;2022-11-13T14:06:21;13.20;;;5.63;;
47009;SDS011;59230;54.164;-3.124;2022-11-13T14:08:48;15.95;;;7.45;;
47009;SDS011;59230;54.164;-3.124;2022-11-13T14:11:14;20.33;;;9.57;;
47009;SDS011;59230;54.164;-3.124;2022-11-13T14:13:53;19.65;;;6.93;;
47009;SDS011;59230;54.164;-3.124;2022-11-13T14:16:58;21.25;;;7.93;;
47009;SDS011;59230;54.164;-3.124;2022-11-13T14:19:26;18.65;;;6.78;;
47009;SDS011;59230;54.164;-3.124;2022-11-13T14:21:52;15.25;;;6.00;;
47009;SDS011;59230;54.164;-3.124;2022-11-13T14:24:25;26.45;;;8.50;;
47009;SDS011;59230;54.164;-3.124;2022-11-13T14:26:55;34.08;;;15.18;;
47009;SDS011;59230;54.164;-3.124;2022-11-13T14:29:32;28.38;;;12.95;;
47009;SDS011;59230;54.164;-3.124;2022-11-13T14:32:22;42.15;;;18.27;;
47009;SDS011;59230;54.164;-3.124;2022-11-13T14:34:52;33.33;;;15.85;;
47009;SDS011;59230;54.164;-3.124;2022-11-13T14:39:53;20.90;;;10.57;;
47009;SDS011;59230;54.164;-3.124;2022-11-13T14:42:34;7.30;;;4.55;;
47009;SDS011;59230;54.164;-3.124;2022-11-13T14:45:15;13.60;;;6.40;;
47009;SDS011;59230;54.164;-3.124;2022-11-13T14:47:54;12.23;;;5.80;;
47009;SDS011;59230;54.164;-3.124;2022-11-13T14:50:33;11.57;;;5.45;;
47009;SDS011;59230;54.164;-3.124;2022-11-13T14:55:37;11.82;;;4.93;;
47009;SDS011;59230;54.164;-3.124;2022-11-13T14:58:24;12.30;;;4.57;;
47009;SDS011;59230;54.164;-3.124;2022-11-13T15:00:51;11.50;;;5.50;;
47009;SDS011;59230;54.164;-3.124;2022-11-13T15:03:20;8.63;;;4.43;;
47009;SDS011;59230;54.164;-3.124;2022-11-13T15:05:46;14.10;;;6.20;;
47009;SDS011;59230;54.164;-3.124;2022-11-13T15:08:14;18.83;;;9.45;;
47009;SDS011;59230;54.164;-3.124;2022-11-13T15:10:41;18.15;;;9.57;;
47009;SDS011;59230;54.164;-3.124;2022-11-13T15:13:10;15.50;;;7.07;;
47009;SDS011;59230;54.164;-3.124;2022-11-13T15:15:44;14.10;;;8.98;;
47009;SDS011;59230;54.164;-3.124;2022-11-13T15:18:16;19.45;;;10.80;;
47009;SDS011;59230;54.164;-3.124;2022-11-13T15:20:44;14.32;;;8.82;;
47009;SDS011;59230;54.164;-3.124;2022-11-13T15:23:14;13.85;;;9.50;;
47009;SDS011;59230;54.164;-3.124;2022-11-13T15:25:42;12.73;;;8.02;;
47009;SDS011;59230;54.164;-3.124;2022-11-13T15:28:08;14.52;;;6.40;;
47009;SDS011;59230;54.164;-3.124;2022-11-13T15:30:34;11.20;;;7.05;;
47009;SDS011;59230;54.164;-3.124;2022-11-13T15:33:05;12.77;;;7.72;;
47009;SDS011;59230;54.164;-3.124;2022-11-13T15:35:42;17.17;;;8.05;;
47009;SDS011;59230;54.164;-3.124;2022-11-13T15:38:10;19.38;;;8.88;;
47009;SDS011;59230;54.164;-3.124;2022-11-13T15:40:37;18.23;;;8.45;;
47009;SDS011;59230;54.164;-3.124;2022-11-13T15:43:08;16.13;;;8.05;;
47009;SDS011;59230;54.164;-3.124;2022-11-13T15:45:45;17.48;;;8.23;;
47009;SDS011;59230;54.164;-3.124;2022-11-13T15:48:12;19.20;;;9.88;;
47009;SDS011;59230;54.164;-3.124;2022-11-13T15:50:37;16.45;;;8.52;;
47009;SDS011;59230;54.164;-3.124;2022-11-13T15:53:07;16.88;;;8.80;;
47009;SDS011;59230;54.164;-3.124;2022-11-13T15:55:39;16.35;;;8.02;;
47009;SDS011;59230;54.164;-3.124;2022-11-13T15:58:12;15.50;;;8.60;;
47009;SDS011;59230;54.164;-3.124;2022-11-13T16:00:41;21.98;;;10.07;;
47009;SDS011;59230;54.164;-3.124;2022-11-13T16:03:09;19.67;;;10.45;;
47009;SDS011;59230;54.164;-3.124;2022-11-13T16:05:36;17.83;;;10.80;;
47009;SDS011;59230;54.164;-3.124;2022-11-13T16:08:11;21.52;;;10.45;;